sensor_id;sensor_type;location;lat;lon;timestamp;temperature;humidity
76120;DHT22;64852;48.092;-1.640;2022-12-29T00:01:53;13.40;99.90
76120;DHT22;64852;48.092;-1.640;2022-12-29T00:04:21;13.50;99.90
76120;DHT22;64852;48.092;-1.640;2022-12-29T00:06:46;13.30;99.90
76120;DHT22;64852;48.092;-1.640;2022-12-29T00:09:13;13.60;99.90
76120;DHT22;64852;48.092;-1.640;2022-12-29T00:11:39;13.70;99.90
76120;DHT22;64852;48.092;-1.640;2022-12-29T00:14:05;13.90;99.90
76120;DHT22;64852;48.092;-1.640;2022-12-29T00:16:49;14.00;99.90
76120;DHT22;64852;48.092;-1.640;2022-12-29T00:19:15;13.90;99.90
76120;DHT22;64852;48.092;-1.640;2022-12-29T00:21:59;14.00;99.90
76120;DHT22;64852;48.092;-1.640;2022-12-29T00:24:44;14.00;99.90
76120;DHT22;64852;48.092;-1.640;2022-12-29T00:27:29;13.90;99.90
76120;DHT22;64852;48.092;-1.640;2022-12-29T00:30:19;13.70;99.90
76120;DHT22;64852;48.092;-1.640;2022-12-29T00:33:14;13.40;99.90
76120;DHT22;64852;48.092;-1.640;2022-12-29T00:38:26;13.30;99.90
76120;DHT22;64852;48.092;-1.640;2022-12-29T00:41:11;13.10;99.90
76120;DHT22;64852;48.092;-1.640;2022-12-29T00:43:55;13.30;99.90
76120;DHT22;64852;48.092;-1.640;2022-12-29T00:46:37;13.40;99.90
76120;DHT22;64852;48.092;-1.640;2022-12-29T00:49:04;13.50;99.90
76120;DHT22;64852;48.092;-1.640;2022-12-29T00:51:48;13.20;99.90
76120;DHT22;64852;48.092;-1.640;2022-12-29T00:54:14;13.20;99.90
76120;DHT22;64852;48.092;-1.640;2022-12-29T00:56:40;13.10;99.90
76120;DHT22;64852;48.092;-1.640;2022-12-29T00:59:08;13.00;99.90
76120;DHT22;64852;48.092;-1.640;2022-12-29T01:01:35;13.00;99.90
76120;DHT22;64852;48.092;-1.640;2022-12-29T01:04:01;13.10;99.90
76120;DHT22;64852;48.092;-1.640;2022-12-29T01:06:27;13.20;99.90
76120;DHT22;64852;48.092;-1.640;2022-12-29T01:08:53;13.10;99.90
76120;DHT22;64852;48.092;-1.640;2022-12-29T01:11:38;13.30;99.90
76120;DHT22;64852;48.092;-1.640;2022-12-29T01:14:04;13.20;99.90
76120;DHT22;64852;48.092;-1.640;2022-12-29T01:16:30;13.20;99.90
76120;DHT22;64852;48.092;-1.640;2022-12-29T01:18:56;13.10;99.90
76120;DHT22;64852;48.092;-1.640;2022-12-29T01:21:21;13.20;99.90
76120;DHT22;64852;48.092;-1.640;2022-12-29T01:23:47;13.00;99.90
76120;DHT22;64852;48.092;-1.640;2022-12-29T01:26:14;13.10;99.90
76120;DHT22;64852;48.092;-1.640;2022-12-29T01:28:41;13.00;99.90
76120;DHT22;64852;48.092;-1.640;2022-12-29T01:31:08;12.90;99.90
76120;DHT22;64852;48.092;-1.640;2022-12-29T01:33:34;12.80;99.90
76120;DHT22;64852;48.092;-1.640;2022-12-29T01:36:01;12.80;99.90
76120;DHT22;64852;48.092;-1.640;2022-12-29T01:38:26;12.80;99.90
76120;DHT22;64852;48.092;-1.640;2022-12-29T01:40:52;12.90;99.90
76120;DHT22;64852;48.092;-1.640;2022-12-29T01:43:18;12.70;99.90
76120;DHT22;64852;48.092;-1.640;2022-12-29T01:45:51;12.40;99.90
76120;DHT22;64852;48.092;-1.640;2022-12-29T01:48:19;12.30;99.90
76120;DHT22;64852;48.092;-1.640;2022-12-29T01:50:51;12.30;99.90
76120;DHT22;64852;48.092;-1.640;2022-12-29T01:53:22;12.10;99.90
76120;DHT22;64852;48.092;-1.640;2022-12-29T01:55:53;12.20;99.90
76120;DHT22;64852;48.092;-1.640;2022-12-29T01:58:21;12.30;99.90
76120;DHT22;64852;48.092;-1.640;2022-12-29T02:00:48;12.30;99.90
76120;DHT22;64852;48.092;-1.640;2022-12-29T02:03:14;12.30;99.90
76120;DHT22;64852;48.092;-1.640;2022-12-29T02:06:00;12.20;99.90
76120;DHT22;64852;48.092;-1.640;2022-12-29T02:08:29;12.20;99.90
76120;DHT22;64852;48.092;-1.640;2022-12-29T02:10:59;12.30;99.90
76120;DHT22;64852;48.092;-1.640;2022-12-29T02:13:26;12.20;99.90
76120;DHT22;64852;48.092;-1.640;2022-12-29T02:18:45;12.40;99.90
76120;DHT22;64852;48.092;-1.640;2022-12-29T02:32:56;12.30;99.90
76120;DHT22;64852;48.092;-1.640;2022-12-29T02:41:53;12.90;99.90
76120;DHT22;64852;48.092;-1.640;2022-12-29T02:45:03;12.80;99.90
76120;DHT22;64852;48.092;-1.640;2022-12-29T02:47:56;12.70;99.90
76120;DHT22;64852;48.092;-1.640;2022-12-29T02:50:34;12.50;99.90
76120;DHT22;64852;48.092;-1.640;2022-12-29T02:53:05;12.40;99.90
76120;DHT22;64852;48.092;-1.640;2022-12-29T02:55:31;12.30;99.90
76120;DHT22;64852;48.092;-1.640;2022-12-29T02:58:17;12.30;99.90
76120;DHT22;64852;48.092;-1.640;2022-12-29T03:06:58;12.70;99.90
76120;DHT22;64852;48.092;-1.640;2022-12-29T03:12:29;12.80;99.90
76120;DHT22;64852;48.092;-1.640;2022-12-29T03:15:28;12.70;99.90
76120;DHT22;64852;48.092;-1.640;2022-12-29T03:18:24;12.70;99.90
76120;DHT22;64852;48.092;-1.640;2022-12-29T03:20:58;12.60;99.90
76120;DHT22;64852;48.092;-1.640;2022-12-29T03:23:27;12.40;99.90
76120;DHT22;64852;48.092;-1.640;2022-12-29T03:26:00;12.50;99.90
76120;DHT22;64852;48.092;-1.640;2022-12-29T03:28:35;12.50;99.90
76120;DHT22;64852;48.092;-1.640;2022-12-29T03:31:02;12.40;99.90
76120;DHT22;64852;48.092;-1.640;2022-12-29T03:33:29;12.40;99.90
76120;DHT22;64852;48.092;-1.640;2022-12-29T03:36:00;12.60;99.90
76120;DHT22;64852;48.092;-1.640;2022-12-29T03:38:44;12.60;99.90
76120;DHT22;64852;48.092;-1.640;2022-12-29T03:41:19;12.60;99.90
76120;DHT22;64852;48.092;-1.640;2022-12-29T03:43:46;12.40;99.90
76120;DHT22;64852;48.092;-1.640;2022-12-29T03:46:12;12.40;99.90
76120;DHT22;64852;48.092;-1.640;2022-12-29T03:48:37;12.50;99.90
76120;DHT22;64852;48.092;-1.640;2022-12-29T03:51:03;12.40;99.90
76120;DHT22;64852;48.092;-1.640;2022-12-29T03:53:29;12.30;99.90
76120;DHT22;64852;48.092;-1.640;2022-12-29T03:55:54;12.40;99.90
76120;DHT22;64852;48.092;-1.640;2022-12-29T03:58:20;12.30;99.90
76120;DHT22;64852;48.092;-1.640;2022-12-29T04:00:46;12.30;99.90
76120;DHT22;64852;48.092;-1.640;2022-12-29T04:03:11;12.40;99.90
76120;DHT22;64852;48.092;-1.640;2022-12-29T04:05:37;12.20;99.90
76120;DHT22;64852;48.092;-1.640;2022-12-29T04:08:03;12.20;99.90
76120;DHT22;64852;48.092;-1.640;2022-12-29T04:10:28;12.30;99.90
76120;DHT22;64852;48.092;-1.640;2022-12-29T04:12:54;12.30;99.90
76120;DHT22;64852;48.092;-1.640;2022-12-29T04:15:19;12.10;99.90
76120;DHT22;64852;48.092;-1.640;2022-12-29T04:17:45;12.20;99.90
76120;DHT22;64852;48.092;-1.640;2022-12-29T04:20:11;12.10;99.90
76120;DHT22;64852;48.092;-1.640;2022-12-29T04:23:04;12.30;99.90
76120;DHT22;64852;48.092;-1.640;2022-12-29T04:25:31;12.40;99.90
76120;DHT22;64852;48.092;-1.640;2022-12-29T04:27:57;12.30;99.90
76120;DHT22;64852;48.092;-1.640;2022-12-29T04:30:24;12.40;99.90
76120;DHT22;64852;48.092;-1.640;2022-12-29T04:32:50;12.20;99.90
76120;DHT22;64852;48.092;-1.640;2022-12-29T04:35:15;12.20;99.90
76120;DHT22;64852;48.092;-1.640;2022-12-29T04:37:41;12.30;99.90
76120;DHT22;64852;48.092;-1.640;2022-12-29T04:40:07;12.50;99.90
76120;DHT22;64852;48.092;-1.640;2022-12-29T04:42:33;12.70;99.90
76120;DHT22;64852;48.092;-1.640;2022-12-29T04:44:59;12.50;99.90
76120;DHT22;64852;48.092;-1.640;2022-12-29T04:47:24;12.50;99.90
76120;DHT22;64852;48.092;-1.640;2022-12-29T04:49:50;12.60;99.90
76120;DHT22;64852;48.092;-1.640;2022-12-29T04:52:16;12.40;99.90
76120;DHT22;64852;48.092;-1.640;2022-12-29T04:54:41;12.30;99.90
76120;DHT22;64852;48.092;-1.640;2022-12-29T04:57:07;12.20;99.90
76120;DHT22;64852;48.092;-1.640;2022-12-29T04:59:32;12.20;99.90
76120;DHT22;64852;48.092;-1.640;2022-12-29T05:01:58;12.20;99.90
76120;DHT22;64852;48.092;-1.640;2022-12-29T05:04:24;12.20;99.90
76120;DHT22;64852;48.092;-1.640;2022-12-29T05:06:49;12.20;99.90
76120;DHT22;64852;48.092;-1.640;2022-12-29T05:09:15;12.10;99.90
76120;DHT22;64852;48.092;-1.640;2022-12-29T05:11:41;12.20;99.90
76120;DHT22;64852;48.092;-1.640;2022-12-29T05:14:06;12.10;99.90
76120;DHT22;64852;48.092;-1.640;2022-12-29T05:16:32;12.10;99.90
76120;DHT22;64852;48.092;-1.640;2022-12-29T05:18:58;12.20;99.90
76120;DHT22;64852;48.092;-1.640;2022-12-29T05:21:23;12.20;99.90
76120;DHT22;64852;48.092;-1.640;2022-12-29T05:23:49;12.10;99.90
76120;DHT22;64852;48.092;-1.640;2022-12-29T05:26:15;12.10;99.90
76120;DHT22;64852;48.092;-1.640;2022-12-29T05:28:40;12.30;99.90
76120;DHT22;64852;48.092;-1.640;2022-12-29T05:31:06;12.30;99.90
76120;DHT22;64852;48.092;-1.640;2022-12-29T05:33:31;12.30;99.90
76120;DHT22;64852;48.092;-1.640;2022-12-29T05:36:02;12.40;99.90
76120;DHT22;64852;48.092;-1.640;2022-12-29T05:38:28;12.50;99.90
76120;DHT22;64852;48.092;-1.640;2022-12-29T05:40:54;12.60;99.90
76120;DHT22;64852;48.092;-1.640;2022-12-29T05:43:19;12.40;99.90
76120;DHT22;64852;48.092;-1.640;2022-12-29T05:45:48;12.30;99.90
76120;DHT22;64852;48.092;-1.640;2022-12-29T05:48:14;12.10;99.90
76120;DHT22;64852;48.092;-1.640;2022-12-29T05:50:39;12.10;99.90
76120;DHT22;64852;48.092;-1.640;2022-12-29T05:53:05;11.80;99.90
76120;DHT22;64852;48.092;-1.640;2022-12-29T05:55:31;12.00;99.90
76120;DHT22;64852;48.092;-1.640;2022-12-29T05:57:56;12.00;99.90
76120;DHT22;64852;48.092;-1.640;2022-12-29T06:00:22;12.10;99.90
76120;DHT22;64852;48.092;-1.640;2022-12-29T06:02:48;12.20;99.90
76120;DHT22;64852;48.092;-1.640;2022-12-29T06:05:13;12.10;99.90
76120;DHT22;64852;48.092;-1.640;2022-12-29T06:07:39;12.20;99.90
76120;DHT22;64852;48.092;-1.640;2022-12-29T06:10:05;12.30;99.90
76120;DHT22;64852;48.092;-1.640;2022-12-29T06:12:31;12.20;99.90
76120;DHT22;64852;48.092;-1.640;2022-12-29T06:14:57;12.40;99.90
76120;DHT22;64852;48.092;-1.640;2022-12-29T06:17:22;12.40;99.90
76120;DHT22;64852;48.092;-1.640;2022-12-29T06:19:48;12.30;99.90
76120;DHT22;64852;48.092;-1.640;2022-12-29T06:22:14;12.50;99.90
76120;DHT22;64852;48.092;-1.640;2022-12-29T06:24:39;12.30;99.90
76120;DHT22;64852;48.092;-1.640;2022-12-29T06:27:05;12.30;99.90
76120;DHT22;64852;48.092;-1.640;2022-12-29T06:29:31;12.10;99.90
76120;DHT22;64852;48.092;-1.640;2022-12-29T06:31:57;12.10;99.90
76120;DHT22;64852;48.092;-1.640;2022-12-29T06:34:23;12.00;99.90
76120;DHT22;64852;48.092;-1.640;2022-12-29T06:36:49;12.00;99.90
76120;DHT22;64852;48.092;-1.640;2022-12-29T06:39:15;11.90;99.90
76120;DHT22;64852;48.092;-1.640;2022-12-29T06:41:41;11.90;99.90
76120;DHT22;64852;48.092;-1.640;2022-12-29T06:44:06;11.90;99.90
76120;DHT22;64852;48.092;-1.640;2022-12-29T06:46:32;11.90;99.90
76120;DHT22;64852;48.092;-1.640;2022-12-29T06:48:58;11.50;99.90
76120;DHT22;64852;48.092;-1.640;2022-12-29T06:51:23;11.50;99.90
76120;DHT22;64852;48.092;-1.640;2022-12-29T06:53:49;11.60;99.90
76120;DHT22;64852;48.092;-1.640;2022-12-29T06:56:15;11.60;99.90
76120;DHT22;64852;48.092;-1.640;2022-12-29T06:58:40;11.80;99.90
76120;DHT22;64852;48.092;-1.640;2022-12-29T07:01:06;11.90;99.90
76120;DHT22;64852;48.092;-1.640;2022-12-29T07:03:32;11.90;99.90
76120;DHT22;64852;48.092;-1.640;2022-12-29T07:05:57;12.10;99.90
76120;DHT22;64852;48.092;-1.640;2022-12-29T07:08:24;12.00;99.90
76120;DHT22;64852;48.092;-1.640;2022-12-29T07:10:49;12.00;99.90
76120;DHT22;64852;48.092;-1.640;2022-12-29T07:13:15;12.10;99.90
76120;DHT22;64852;48.092;-1.640;2022-12-29T07:15:41;12.30;99.90
76120;DHT22;64852;48.092;-1.640;2022-12-29T07:18:06;12.10;99.90
76120;DHT22;64852;48.092;-1.640;2022-12-29T07:20:32;12.10;99.90
76120;DHT22;64852;48.092;-1.640;2022-12-29T07:22:58;12.00;99.90
76120;DHT22;64852;48.092;-1.640;2022-12-29T07:25:23;12.00;99.90
76120;DHT22;64852;48.092;-1.640;2022-12-29T07:27:49;12.00;99.90
76120;DHT22;64852;48.092;-1.640;2022-12-29T07:30:15;11.80;99.90
76120;DHT22;64852;48.092;-1.640;2022-12-29T07:32:41;11.90;99.90
76120;DHT22;64852;48.092;-1.640;2022-12-29T07:35:07;11.80;99.90
76120;DHT22;64852;48.092;-1.640;2022-12-29T07:37:33;11.70;99.90
76120;DHT22;64852;48.092;-1.640;2022-12-29T07:40:00;11.80;99.90
76120;DHT22;64852;48.092;-1.640;2022-12-29T07:42:26;11.80;99.90
76120;DHT22;64852;48.092;-1.640;2022-12-29T07:44:52;11.80;99.90
76120;DHT22;64852;48.092;-1.640;2022-12-29T07:47:17;11.90;99.90
76120;DHT22;64852;48.092;-1.640;2022-12-29T07:49:43;11.80;99.90
76120;DHT22;64852;48.092;-1.640;2022-12-29T07:52:09;11.80;99.90
76120;DHT22;64852;48.092;-1.640;2022-12-29T07:54:34;11.70;99.90
76120;DHT22;64852;48.092;-1.640;2022-12-29T07:57:00;11.70;99.90
76120;DHT22;64852;48.092;-1.640;2022-12-29T07:59:26;11.80;99.90
76120;DHT22;64852;48.092;-1.640;2022-12-29T08:01:52;11.80;99.90
76120;DHT22;64852;48.092;-1.640;2022-12-29T08:04:17;11.90;99.90
76120;DHT22;64852;48.092;-1.640;2022-12-29T08:06:43;11.80;99.90
76120;DHT22;64852;48.092;-1.640;2022-12-29T08:09:10;11.70;99.90
76120;DHT22;64852;48.092;-1.640;2022-12-29T08:11:36;11.70;99.90
76120;DHT22;64852;48.092;-1.640;2022-12-29T08:14:02;11.60;99.90
76120;DHT22;64852;48.092;-1.640;2022-12-29T08:16:28;11.60;99.90
76120;DHT22;64852;48.092;-1.640;2022-12-29T08:18:54;11.70;99.90
76120;DHT22;64852;48.092;-1.640;2022-12-29T08:21:19;11.70;99.90
76120;DHT22;64852;48.092;-1.640;2022-12-29T08:23:45;11.70;99.90
76120;DHT22;64852;48.092;-1.640;2022-12-29T08:26:10;11.70;99.90
76120;DHT22;64852;48.092;-1.640;2022-12-29T08:28:36;11.80;99.90
76120;DHT22;64852;48.092;-1.640;2022-12-29T08:31:02;11.80;99.90
76120;DHT22;64852;48.092;-1.640;2022-12-29T08:33:29;11.80;99.90
76120;DHT22;64852;48.092;-1.640;2022-12-29T08:36:05;11.70;99.90
76120;DHT22;64852;48.092;-1.640;2022-12-29T08:38:31;11.70;99.90
76120;DHT22;64852;48.092;-1.640;2022-12-29T08:40:57;11.80;99.90
76120;DHT22;64852;48.092;-1.640;2022-12-29T08:43:24;11.80;99.90
76120;DHT22;64852;48.092;-1.640;2022-12-29T08:45:50;11.80;99.90
76120;DHT22;64852;48.092;-1.640;2022-12-29T08:48:16;11.90;99.90
76120;DHT22;64852;48.092;-1.640;2022-12-29T08:50:45;11.80;99.90
76120;DHT22;64852;48.092;-1.640;2022-12-29T08:53:11;11.90;99.90
76120;DHT22;64852;48.092;-1.640;2022-12-29T08:55:37;11.90;99.90
76120;DHT22;64852;48.092;-1.640;2022-12-29T08:58:03;12.00;99.90
76120;DHT22;64852;48.092;-1.640;2022-12-29T09:00:28;12.00;99.90
76120;DHT22;64852;48.092;-1.640;2022-12-29T09:02:54;12.00;99.90
76120;DHT22;64852;48.092;-1.640;2022-12-29T09:05:20;12.10;99.90
76120;DHT22;64852;48.092;-1.640;2022-12-29T09:07:46;11.90;99.90
76120;DHT22;64852;48.092;-1.640;2022-12-29T09:10:12;12.00;99.90
76120;DHT22;64852;48.092;-1.640;2022-12-29T09:12:38;12.00;99.90
76120;DHT22;64852;48.092;-1.640;2022-12-29T09:15:04;12.00;99.90
76120;DHT22;64852;48.092;-1.640;2022-12-29T09:17:30;12.10;99.90
76120;DHT22;64852;48.092;-1.640;2022-12-29T09:20:13;12.00;99.90
76120;DHT22;64852;48.092;-1.640;2022-12-29T09:22:40;12.20;99.90
76120;DHT22;64852;48.092;-1.640;2022-12-29T09:25:06;12.10;99.90
76120;DHT22;64852;48.092;-1.640;2022-12-29T09:27:31;13.40;99.90
76120;DHT22;64852;48.092;-1.640;2022-12-29T09:29:57;12.40;99.90
76120;DHT22;64852;48.092;-1.640;2022-12-29T09:32:23;12.10;99.90
76120;DHT22;64852;48.092;-1.640;2022-12-29T09:34:49;12.00;99.90
76120;DHT22;64852;48.092;-1.640;2022-12-29T09:37:14;11.60;99.90
76120;DHT22;64852;48.092;-1.640;2022-12-29T09:39:40;11.30;99.90
76120;DHT22;64852;48.092;-1.640;2022-12-29T09:47:14;11.50;99.90
76120;DHT22;64852;48.092;-1.640;2022-12-29T09:49:47;11.50;99.90
76120;DHT22;64852;48.092;-1.640;2022-12-29T09:52:46;11.80;99.90
76120;DHT22;64852;48.092;-1.640;2022-12-29T09:55:19;11.60;99.90
76120;DHT22;64852;48.092;-1.640;2022-12-29T10:00:21;11.90;99.90
76120;DHT22;64852;48.092;-1.640;2022-12-29T10:02:58;12.00;99.90
76120;DHT22;64852;48.092;-1.640;2022-12-29T10:06:26;12.10;99.90
76120;DHT22;64852;48.092;-1.640;2022-12-29T10:08:44;12.00;99.90
76120;DHT22;64852;48.092;-1.640;2022-12-29T10:11:32;11.80;99.90
76120;DHT22;64852;48.092;-1.640;2022-12-29T10:14:24;11.70;99.90
76120;DHT22;64852;48.092;-1.640;2022-12-29T10:19:42;11.90;99.90
76120;DHT22;64852;48.092;-1.640;2022-12-29T10:24:53;11.90;99.90
76120;DHT22;64852;48.092;-1.640;2022-12-29T10:27:20;12.10;99.90
76120;DHT22;64852;48.092;-1.640;2022-12-29T10:29:54;12.30;99.90
76120;DHT22;64852;48.092;-1.640;2022-12-29T10:32:44;12.40;99.90
76120;DHT22;64852;48.092;-1.640;2022-12-29T10:35:23;12.40;99.90
76120;DHT22;64852;48.092;-1.640;2022-12-29T10:37:53;12.60;99.90
76120;DHT22;64852;48.092;-1.640;2022-12-29T10:40:43;12.80;99.90
76120;DHT22;64852;48.092;-1.640;2022-12-29T10:43:30;13.00;99.90
76120;DHT22;64852;48.092;-1.640;2022-12-29T10:46:00;13.20;99.90
76120;DHT22;64852;48.092;-1.640;2022-12-29T10:48:35;13.00;99.90
76120;DHT22;64852;48.092;-1.640;2022-12-29T10:51:05;11.60;99.90
76120;DHT22;64852;48.092;-1.640;2022-12-29T10:53:45;12.80;99.90
76120;DHT22;64852;48.092;-1.640;2022-12-29T10:56:28;13.20;99.90
76120;DHT22;64852;48.092;-1.640;2022-12-29T10:58:57;13.10;99.90
76120;DHT22;64852;48.092;-1.640;2022-12-29T11:01:31;13.20;99.90
76120;DHT22;64852;48.092;-1.640;2022-12-29T11:04:07;13.30;99.90
76120;DHT22;64852;48.092;-1.640;2022-12-29T11:06:36;13.30;99.90
76120;DHT22;64852;48.092;-1.640;2022-12-29T11:09:14;13.20;99.90
76120;DHT22;64852;48.092;-1.640;2022-12-29T11:11:40;13.20;99.90
76120;DHT22;64852;48.092;-1.640;2022-12-29T11:14:14;13.20;99.90
76120;DHT22;64852;48.092;-1.640;2022-12-29T11:16:43;13.20;99.90
76120;DHT22;64852;48.092;-1.640;2022-12-29T11:19:28;13.30;99.90
76120;DHT22;64852;48.092;-1.640;2022-12-29T11:21:54;13.00;99.90
76120;DHT22;64852;48.092;-1.640;2022-12-29T11:24:24;13.20;99.90
76120;DHT22;64852;48.092;-1.640;2022-12-29T11:26:55;13.10;99.90
76120;DHT22;64852;48.092;-1.640;2022-12-29T11:29:28;13.20;99.90
76120;DHT22;64852;48.092;-1.640;2022-12-29T11:31:58;13.10;99.90
76120;DHT22;64852;48.092;-1.640;2022-12-29T11:34:32;13.10;99.90
76120;DHT22;64852;48.092;-1.640;2022-12-29T11:37:09;12.90;99.90
76120;DHT22;64852;48.092;-1.640;2022-12-29T11:39:53;12.60;99.90
76120;DHT22;64852;48.092;-1.640;2022-12-29T11:42:34;12.70;99.90
76120;DHT22;64852;48.092;-1.640;2022-12-29T11:45:06;12.70;99.90
76120;DHT22;64852;48.092;-1.640;2022-12-29T11:47:32;12.60;99.90
76120;DHT22;64852;48.092;-1.640;2022-12-29T11:50:05;12.70;99.90
76120;DHT22;64852;48.092;-1.640;2022-12-29T11:52:34;13.00;99.90
76120;DHT22;64852;48.092;-1.640;2022-12-29T11:55:04;13.10;99.90
76120;DHT22;64852;48.092;-1.640;2022-12-29T11:57:32;13.10;99.90
76120;DHT22;64852;48.092;-1.640;2022-12-29T12:00:02;13.10;99.90
76120;DHT22;64852;48.092;-1.640;2022-12-29T12:08:11;13.60;99.90
76120;DHT22;64852;48.092;-1.640;2022-12-29T12:10:50;13.70;99.90
76120;DHT22;64852;48.092;-1.640;2022-12-29T12:16:19;13.50;99.90
76120;DHT22;64852;48.092;-1.640;2022-12-29T12:18:53;13.60;99.90
76120;DHT22;64852;48.092;-1.640;2022-12-29T12:24:09;13.00;99.90
76120;DHT22;64852;48.092;-1.640;2022-12-29T12:27:12;13.40;99.90
76120;DHT22;64852;48.092;-1.640;2022-12-29T12:30:33;13.30;99.90
76120;DHT22;64852;48.092;-1.640;2022-12-29T12:41:16;13.60;99.90
76120;DHT22;64852;48.092;-1.640;2022-12-29T12:43:51;13.50;99.90
76120;DHT22;64852;48.092;-1.640;2022-12-29T13:10:50;13.90;99.90
76120;DHT22;64852;48.092;-1.640;2022-12-29T13:22:07;13.80;99.90
76120;DHT22;64852;48.092;-1.640;2022-12-29T13:25:33;13.30;99.90
76120;DHT22;64852;48.092;-1.640;2022-12-29T13:27:51;12.60;99.90
76120;DHT22;64852;48.092;-1.640;2022-12-29T13:30:23;12.50;99.90
76120;DHT22;64852;48.092;-1.640;2022-12-29T13:33:32;12.70;99.90
76120;DHT22;64852;48.092;-1.640;2022-12-29T13:35:57;12.60;99.90
76120;DHT22;64852;48.092;-1.640;2022-12-29T13:38:44;12.30;99.90
76120;DHT22;64852;48.092;-1.640;2022-12-29T13:41:25;12.20;99.90
76120;DHT22;64852;48.092;-1.640;2022-12-29T13:43:54;12.30;99.90
76120;DHT22;64852;48.092;-1.640;2022-12-29T13:46:25;12.40;99.90
76120;DHT22;64852;48.092;-1.640;2022-12-29T13:49:14;12.60;99.90
76120;DHT22;64852;48.092;-1.640;2022-12-29T13:51:52;12.60;99.90
76120;DHT22;64852;48.092;-1.640;2022-12-29T13:57:34;12.60;99.90
76120;DHT22;64852;48.092;-1.640;2022-12-29T14:00:19;12.60;99.90
76120;DHT22;64852;48.092;-1.640;2022-12-29T14:07:46;13.20;99.90
76120;DHT22;64852;48.092;-1.640;2022-12-29T14:10:37;13.10;99.90
76120;DHT22;64852;48.092;-1.640;2022-12-29T14:13:13;13.40;99.90
76120;DHT22;64852;48.092;-1.640;2022-12-29T14:15:41;13.50;99.90
76120;DHT22;64852;48.092;-1.640;2022-12-29T14:18:43;13.10;99.90
76120;DHT22;64852;48.092;-1.640;2022-12-29T14:23:43;12.80;99.90
76120;DHT22;64852;48.092;-1.640;2022-12-29T14:28:55;12.90;99.90
76120;DHT22;64852;48.092;-1.640;2022-12-29T14:31:34;12.90;99.90
76120;DHT22;64852;48.092;-1.640;2022-12-29T14:36:38;13.10;99.90
76120;DHT22;64852;48.092;-1.640;2022-12-29T14:45:08;13.30;99.90
76120;DHT22;64852;48.092;-1.640;2022-12-29T14:47:49;13.50;99.90
76120;DHT22;64852;48.092;-1.640;2022-12-29T14:50:25;13.60;99.90
76120;DHT22;64852;48.092;-1.640;2022-12-29T14:53:02;13.40;99.90
76120;DHT22;64852;48.092;-1.640;2022-12-29T14:55:54;13.60;99.90
76120;DHT22;64852;48.092;-1.640;2022-12-29T15:00:51;13.50;99.90
76120;DHT22;64852;48.092;-1.640;2022-12-29T15:03:21;13.70;99.90
76120;DHT22;64852;48.092;-1.640;2022-12-29T15:08:22;13.40;99.90
76120;DHT22;64852;48.092;-1.640;2022-12-29T15:13:47;13.50;99.90
76120;DHT22;64852;48.092;-1.640;2022-12-29T15:16:29;13.40;99.90
76120;DHT22;64852;48.092;-1.640;2022-12-29T15:18:55;13.30;99.90
76120;DHT22;64852;48.092;-1.640;2022-12-29T15:21:26;13.50;99.90
76120;DHT22;64852;48.092;-1.640;2022-12-29T15:23:52;13.40;99.90
76120;DHT22;64852;48.092;-1.640;2022-12-29T15:26:19;13.40;99.90
76120;DHT22;64852;48.092;-1.640;2022-12-29T15:28:53;13.30;99.90
76120;DHT22;64852;48.092;-1.640;2022-12-29T15:31:22;13.00;99.90
76120;DHT22;64852;48.092;-1.640;2022-12-29T15:34:01;13.00;99.90
76120;DHT22;64852;48.092;-1.640;2022-12-29T15:36:29;13.00;99.90
76120;DHT22;64852;48.092;-1.640;2022-12-29T15:38:55;12.70;99.90
76120;DHT22;64852;48.092;-1.640;2022-12-29T15:46:31;12.60;99.90
76120;DHT22;64852;48.092;-1.640;2022-12-29T15:48:57;12.60;99.90
76120;DHT22;64852;48.092;-1.640;2022-12-29T15:51:30;12.50;99.90
76120;DHT22;64852;48.092;-1.640;2022-12-29T15:53:58;12.50;99.90
76120;DHT22;64852;48.092;-1.640;2022-12-29T15:56:27;12.30;99.90
76120;DHT22;64852;48.092;-1.640;2022-12-29T15:58:53;12.30;99.90
76120;DHT22;64852;48.092;-1.640;2022-12-29T16:01:32;12.30;99.90
76120;DHT22;64852;48.092;-1.640;2022-12-29T16:04:00;12.20;99.90
76120;DHT22;64852;48.092;-1.640;2022-12-29T16:06:33;12.30;99.90
76120;DHT22;64852;48.092;-1.640;2022-12-29T16:09:04;12.30;99.90
76120;DHT22;64852;48.092;-1.640;2022-12-29T16:11:34;12.30;99.90
76120;DHT22;64852;48.092;-1.640;2022-12-29T16:14:02;12.40;99.90
76120;DHT22;64852;48.092;-1.640;2022-12-29T16:16:35;12.40;99.90
76120;DHT22;64852;48.092;-1.640;2022-12-29T16:19:12;12.60;99.90
76120;DHT22;64852;48.092;-1.640;2022-12-29T16:21:38;12.60;99.90
76120;DHT22;64852;48.092;-1.640;2022-12-29T16:24:12;12.60;99.90
76120;DHT22;64852;48.092;-1.640;2022-12-29T16:26:39;12.70;99.90
76120;DHT22;64852;48.092;-1.640;2022-12-29T16:29:12;12.60;99.90
76120;DHT22;64852;48.092;-1.640;2022-12-29T16:31:57;12.80;99.90
76120;DHT22;64852;48.092;-1.640;2022-12-29T16:34:31;12.70;99.90
76120;DHT22;64852;48.092;-1.640;2022-12-29T16:37:24;12.70;99.90
76120;DHT22;64852;48.092;-1.640;2022-12-29T16:39:50;12.70;99.90
76120;DHT22;64852;48.092;-1.640;2022-12-29T16:42:36;12.50;99.90
76120;DHT22;64852;48.092;-1.640;2022-12-29T16:50:38;12.30;99.90
76120;DHT22;64852;48.092;-1.640;2022-12-29T16:53:06;12.20;99.90
76120;DHT22;64852;48.092;-1.640;2022-12-29T16:55:46;12.20;99.90
76120;DHT22;64852;48.092;-1.640;2022-12-29T16:58:17;12.30;99.90
76120;DHT22;64852;48.092;-1.640;2022-12-29T17:00:45;12.40;99.90
76120;DHT22;64852;48.092;-1.640;2022-12-29T17:03:12;12.60;99.90
76120;DHT22;64852;48.092;-1.640;2022-12-29T17:05:38;12.70;99.90
76120;DHT22;64852;48.092;-1.640;2022-12-29T17:08:17;12.80;99.90
76120;DHT22;64852;48.092;-1.640;2022-12-29T17:10:49;12.70;99.90
76120;DHT22;64852;48.092;-1.640;2022-12-29T17:13:34;12.80;99.90
76120;DHT22;64852;48.092;-1.640;2022-12-29T17:16:00;12.70;99.90
76120;DHT22;64852;48.092;-1.640;2022-12-29T17:18:26;12.70;99.90
76120;DHT22;64852;48.092;-1.640;2022-12-29T17:20:52;12.70;99.90
76120;DHT22;64852;48.092;-1.640;2022-12-29T17:23:17;12.70;99.90
76120;DHT22;64852;48.092;-1.640;2022-12-29T17:25:43;12.70;99.90
76120;DHT22;64852;48.092;-1.640;2022-12-29T17:28:23;12.60;99.90
76120;DHT22;64852;48.092;-1.640;2022-12-29T17:30:59;12.50;99.90
76120;DHT22;64852;48.092;-1.640;2022-12-29T17:33:26;12.40;99.90
76120;DHT22;64852;48.092;-1.640;2022-12-29T17:35:52;12.40;99.90
76120;DHT22;64852;48.092;-1.640;2022-12-29T17:38:21;12.40;99.90
76120;DHT22;64852;48.092;-1.640;2022-12-29T17:40:48;12.40;99.90
76120;DHT22;64852;48.092;-1.640;2022-12-29T17:43:15;12.30;99.90
76120;DHT22;64852;48.092;-1.640;2022-12-29T17:45:43;12.40;99.90
76120;DHT22;64852;48.092;-1.640;2022-12-29T17:48:13;12.30;99.90
76120;DHT22;64852;48.092;-1.640;2022-12-29T17:50:40;12.30;99.90
76120;DHT22;64852;48.092;-1.640;2022-12-29T17:53:10;12.10;99.90
76120;DHT22;64852;48.092;-1.640;2022-12-29T17:55:37;12.10;99.90
76120;DHT22;64852;48.092;-1.640;2022-12-29T17:58:21;11.90;99.90